createdAt,value
2023-03-17T00:01:54.714Z,99.90
2023-03-17T00:04:25.019Z,99.90
2023-03-17T00:06:53.919Z,99.90
2023-03-17T00:09:23.019Z,99.90
2023-03-17T00:11:53.500Z,99.90
2023-03-17T00:14:21.787Z,99.90
2023-03-17T00:16:51.405Z,99.90
2023-03-17T00:19:22.190Z,99.90
2023-03-17T00:21:50.969Z,99.90
2023-03-17T00:24:19.054Z,99.90
2023-03-17T00:26:47.276Z,99.90
2023-03-17T00:29:17.516Z,99.90
2023-03-17T00:31:46.501Z,99.90
2023-03-17T00:34:19.505Z,99.90
2023-03-17T00:36:49.751Z,99.90
2023-03-17T00:39:19.028Z,99.90
2023-03-17T00:44:16.835Z,99.90
2023-03-17T00:46:46.641Z,99.90
2023-03-17T00:49:19.020Z,99.90
2023-03-17T00:51:48.436Z,99.90
2023-03-17T00:54:18.289Z,99.90
2023-03-17T00:56:48.108Z,99.90
2023-03-17T00:59:23.212Z,99.90
2023-03-17T01:01:51.896Z,99.90
2023-03-17T01:04:20.932Z,99.90
2023-03-17T01:06:50.884Z,99.90
2023-03-17T01:09:21.316Z,99.90
2023-03-17T01:11:50.035Z,99.90
2023-03-17T01:14:20.314Z,99.90
2023-03-17T01:16:49.023Z,99.90
2023-03-17T01:19:18.333Z,99.90
2023-03-17T01:21:48.190Z,99.90
2023-03-17T01:24:16.781Z,99.90
2023-03-17T01:26:46.060Z,99.90
2023-03-17T01:29:14.775Z,99.90
2023-03-17T01:31:46.297Z,99.90
2023-03-17T01:34:14.845Z,99.90
2023-03-17T01:36:43.404Z,99.90
2023-03-17T01:39:13.087Z,99.90
2023-03-17T01:41:42.331Z,99.90
2023-03-17T01:44:17.111Z,99.90
2023-03-17T01:46:47.709Z,99.90
2023-03-17T01:49:30.491Z,99.90
2023-03-17T01:52:06.157Z,99.90
2023-03-17T01:54:41.288Z,99.90
2023-03-17T01:57:14.864Z,99.90
2023-03-17T01:59:50.442Z,99.90
2023-03-17T02:02:25.228Z,99.90
2023-03-17T02:04:54.563Z,99.90
2023-03-17T02:07:24.851Z,99.90
2023-03-17T02:09:54.327Z,99.90
2023-03-17T02:12:24.897Z,99.90
2023-03-17T02:14:54.206Z,99.90
2023-03-17T02:17:26.611Z,99.90
2023-03-17T02:19:56.235Z,99.90
2023-03-17T02:22:26.612Z,99.90
2023-03-17T02:24:58.690Z,99.90
2023-03-17T02:30:16.563Z,99.90
2023-03-17T02:32:45.286Z,99.90
2023-03-17T02:35:14.150Z,99.90
2023-03-17T02:37:43.895Z,99.90
2023-03-17T02:40:14.571Z,99.90
2023-03-17T02:42:43.505Z,99.90
2023-03-17T02:45:15.370Z,99.90
2023-03-17T02:47:44.072Z,99.90
2023-03-17T02:50:19.523Z,99.90
2023-03-17T02:52:48.144Z,99.90
2023-03-17T02:55:17.075Z,99.90
2023-03-17T02:57:45.712Z,99.90
2023-03-17T03:00:16.330Z,99.90
2023-03-17T03:02:44.683Z,99.90
2023-03-17T03:05:13.146Z,99.90
2023-03-17T03:07:41.622Z,99.90
2023-03-17T03:10:11.246Z,99.90
2023-03-17T03:12:40.423Z,99.90
2023-03-17T03:15:09.823Z,99.90
2023-03-17T03:17:39.504Z,99.90
2023-03-17T03:20:11.091Z,99.90
2023-03-17T03:22:39.332Z,99.90
2023-03-17T03:25:08.875Z,99.90
2023-03-17T03:27:37.681Z,99.90
2023-03-17T03:30:08.299Z,99.90
2023-03-17T03:32:38.307Z,99.90
2023-03-17T03:35:08.579Z,99.90
2023-03-17T03:37:37.019Z,99.90
2023-03-17T03:40:07.606Z,99.90
2023-03-17T03:42:36.102Z,99.90
2023-03-17T03:45:04.614Z,99.90
2023-03-17T03:47:32.958Z,99.90
2023-03-17T03:50:02.773Z,99.90
2023-03-17T03:52:31.161Z,99.90
2023-03-17T03:54:59.669Z,99.90
2023-03-17T03:57:28.274Z,99.90
2023-03-17T03:59:56.579Z,99.90
2023-03-17T04:02:25.021Z,99.90
2023-03-17T04:04:54.306Z,99.90
2023-03-17T04:07:24.119Z,99.90
2023-03-17T04:09:52.454Z,99.90
2023-03-17T04:12:20.848Z,99.90
2023-03-17T04:14:49.180Z,99.90
2023-03-17T04:17:17.442Z,99.90
2023-03-17T04:19:46.026Z,99.90
2023-03-17T04:22:14.523Z,99.90
2023-03-17T04:24:44.431Z,99.90
2023-03-17T04:27:15.730Z,99.90
2023-03-17T04:29:44.819Z,99.90
2023-03-17T04:32:15.060Z,99.90
2023-03-17T04:34:44.267Z,99.90
2023-03-17T04:37:13.107Z,99.90
2023-03-17T04:39:42.208Z,99.90
2023-03-17T04:42:12.269Z,99.90
2023-03-17T04:44:41.460Z,99.90
2023-03-17T04:47:10.151Z,99.90
2023-03-17T04:49:38.660Z,99.90
2023-03-17T04:52:07.281Z,99.90
2023-03-17T04:54:36.532Z,99.90
2023-03-17T04:57:05.093Z,99.90
2023-03-17T04:59:34.853Z,99.90
2023-03-17T05:02:03.563Z,99.90
2023-03-17T05:04:32.789Z,99.90
2023-03-17T05:07:01.442Z,99.90
2023-03-17T05:09:29.557Z,99.90
2023-03-17T05:11:57.666Z,99.90
2023-03-17T05:14:26.265Z,99.90
2023-03-17T05:16:55.743Z,99.90
2023-03-17T05:19:23.860Z,99.90
2023-03-17T05:21:52.342Z,99.90
2023-03-17T05:24:20.476Z,99.90
2023-03-17T05:26:48.620Z,99.90
2023-03-17T05:29:16.743Z,99.90
2023-03-17T05:31:45.030Z,99.90
2023-03-17T05:34:15.386Z,99.90
2023-03-17T05:36:43.581Z,99.90
2023-03-17T05:39:14.338Z,99.90
2023-03-17T05:41:42.608Z,99.90
2023-03-17T05:44:10.665Z,99.90
2023-03-17T05:46:38.785Z,99.90
2023-03-17T05:49:07.677Z,99.90
2023-03-17T05:51:37.230Z,99.90
2023-03-17T05:54:05.859Z,99.90
2023-03-17T05:56:34.352Z,99.90
2023-03-17T05:59:02.795Z,99.90
2023-03-17T06:01:31.356Z,99.90
2023-03-17T06:04:01.005Z,99.90
2023-03-17T06:06:29.759Z,99.90
2023-03-17T06:08:59.222Z,99.90
2023-03-17T06:11:27.433Z,99.90
2023-03-17T06:13:55.521Z,99.90
2023-03-17T06:16:23.751Z,99.90
2023-03-17T06:18:52.130Z,99.90
2023-03-17T06:21:21.104Z,99.90
2023-03-17T06:23:49.197Z,99.90
2023-03-17T06:26:18.876Z,99.90
2023-03-17T06:28:47.078Z,99.90
2023-03-17T06:31:15.652Z,99.90
2023-03-17T06:33:43.857Z,99.90
2023-03-17T06:36:12.384Z,99.90
2023-03-17T06:38:40.654Z,99.90
2023-03-17T06:41:09.094Z,99.90
2023-03-17T06:43:38.695Z,99.90
2023-03-17T06:46:07.303Z,99.90
2023-03-17T06:48:35.628Z,99.90
2023-03-17T06:51:04.277Z,99.90
2023-03-17T06:53:32.572Z,99.90
2023-03-17T06:56:00.696Z,99.90
2023-03-17T06:58:28.957Z,99.90
2023-03-17T07:00:59.790Z,99.90
2023-03-17T07:03:28.662Z,99.90
2023-03-17T07:05:56.949Z,99.90
2023-03-17T07:08:25.232Z,99.90
2023-03-17T07:10:57.319Z,99.90
2023-03-17T07:13:25.890Z,99.90
2023-03-17T07:15:55.473Z,99.90
2023-03-17T07:18:25.517Z,99.90
2023-03-17T07:20:53.705Z,99.90
2023-03-17T07:23:23.467Z,99.90
2023-03-17T07:25:51.617Z,99.90
2023-03-17T07:28:21.563Z,99.10
2023-03-17T07:30:50.054Z,98.40
2023-03-17T07:33:21.215Z,97.50
2023-03-17T07:35:51.073Z,97.90
2023-03-17T07:38:20.512Z,96.50
2023-03-17T07:40:49.877Z,95.30
2023-03-17T07:43:18.438Z,94.90
2023-03-17T07:45:47.932Z,95.10
2023-03-17T07:48:16.285Z,95.10
2023-03-17T07:50:44.447Z,95.20
2023-03-17T07:53:14.560Z,95.70
2023-03-17T07:55:42.629Z,95.90
2023-03-17T07:58:11.818Z,95.90
2023-03-17T08:00:40.848Z,95.80
2023-03-17T08:03:10.894Z,95.00
2023-03-17T08:05:39.682Z,95.70
2023-03-17T08:08:08.044Z,95.80
2023-03-17T08:10:37.576Z,95.50
2023-03-17T08:13:05.676Z,95.40
2023-03-17T08:15:33.777Z,95.20
2023-03-17T08:18:02.504Z,95.80
2023-03-17T08:20:31.097Z,94.60
2023-03-17T08:22:59.395Z,95.20
2023-03-17T08:25:27.697Z,95.00
2023-03-17T08:27:57.271Z,94.30
2023-03-17T08:30:25.573Z,94.20
2023-03-17T08:32:54.849Z,94.80
2023-03-17T08:35:23.472Z,94.00
2023-03-17T08:37:52.111Z,94.00
2023-03-17T08:40:21.580Z,93.90
2023-03-17T08:42:50.716Z,94.00
2023-03-17T08:45:21.297Z,93.80
2023-03-17T08:47:49.558Z,93.80
2023-03-17T08:50:21.043Z,93.60
2023-03-17T08:52:49.875Z,93.70
2023-03-17T08:55:18.953Z,93.90
2023-03-17T08:57:47.552Z,94.00
2023-03-17T09:00:20.421Z,93.80
2023-03-17T09:02:50.395Z,93.80
2023-03-17T09:05:19.598Z,93.30
2023-03-17T09:07:49.100Z,93.60
2023-03-17T09:10:22.576Z,93.00
2023-03-17T09:12:50.809Z,93.30
2023-03-17T09:15:19.038Z,92.80
2023-03-17T09:17:47.211Z,92.80
2023-03-17T09:20:17.409Z,92.90
2023-03-17T09:22:45.693Z,92.80
2023-03-17T09:25:13.828Z,92.60
2023-03-17T09:27:41.954Z,93.00
2023-03-17T09:30:11.379Z,92.30
2023-03-17T09:32:39.751Z,92.60
2023-03-17T09:35:08.344Z,92.80
2023-03-17T09:37:37.943Z,92.20
2023-03-17T09:40:09.287Z,91.40
2023-03-17T09:42:51.554Z,91.90
2023-03-17T09:45:32.456Z,91.40
2023-03-17T09:48:12.939Z,91.40
2023-03-17T09:50:48.689Z,91.30
2023-03-17T09:53:21.951Z,90.60
2023-03-17T09:55:53.800Z,90.70
2023-03-17T09:58:27.159Z,90.90
2023-03-17T10:00:55.682Z,90.50
2023-03-17T10:03:25.719Z,90.80
2023-03-17T10:05:54.188Z,90.40
2023-03-17T10:08:31.782Z,90.60
2023-03-17T10:11:10.998Z,91.00
2023-03-17T10:13:52.809Z,90.70
2023-03-17T10:16:24.225Z,90.50
2023-03-17T10:18:56.852Z,90.10
2023-03-17T10:21:30.081Z,90.00
2023-03-17T10:24:00.448Z,89.60
2023-03-17T10:26:32.298Z,90.10
2023-03-17T10:29:03.988Z,90.30
2023-03-17T10:31:34.849Z,90.40
2023-03-17T10:34:14.752Z,90.70
2023-03-17T10:36:47.831Z,91.30
2023-03-17T10:39:20.754Z,90.60
2023-03-17T10:41:55.650Z,90.80
2023-03-17T10:44:35.696Z,90.50
2023-03-17T10:47:04.145Z,90.20
2023-03-17T10:49:37.797Z,90.40
2023-03-17T10:52:08.992Z,90.40
2023-03-17T10:54:38.626Z,90.10
2023-03-17T10:57:10.735Z,90.30
2023-03-17T10:59:44.839Z,90.20
2023-03-17T11:02:24.957Z,89.50
2023-03-17T11:04:59.836Z,89.60
2023-03-17T11:07:31.311Z,89.60
2023-03-17T11:10:03.549Z,89.70
2023-03-17T11:12:37.248Z,90.20
2023-03-17T11:15:08.634Z,90.20
2023-03-17T11:17:51.232Z,88.20
2023-03-17T11:20:34.730Z,89.40
2023-03-17T11:23:10.708Z,89.20
2023-03-17T11:25:44.972Z,88.00
2023-03-17T11:28:20.339Z,88.40
2023-03-17T11:31:01.924Z,88.40
2023-03-17T11:33:47.215Z,89.10
2023-03-17T11:36:27.352Z,89.00
2023-03-17T11:39:04.018Z,88.80
2023-03-17T11:41:48.854Z,88.60
2023-03-17T11:44:50.183Z,88.50
2023-03-17T11:47:32.140Z,89.50
2023-03-17T11:50:06.563Z,87.70
2023-03-17T11:52:44.819Z,88.40
2023-03-17T11:55:20.433Z,89.10
2023-03-17T11:57:55.869Z,89.00
2023-03-17T12:00:28.265Z,89.80
2023-03-17T12:03:02.012Z,89.90
2023-03-17T12:05:31.649Z,90.10
2023-03-17T12:08:04.290Z,88.90
2023-03-17T12:10:36.416Z,88.90
2023-03-17T12:13:12.157Z,89.50
2023-03-17T12:15:45.563Z,89.40
2023-03-17T12:18:17.553Z,89.50
2023-03-17T12:20:52.139Z,89.40
2023-03-17T12:23:30.496Z,89.30
2023-03-17T12:26:03.852Z,89.50
2023-03-17T12:28:37.827Z,88.90
2023-03-17T12:31:08.858Z,89.20
2023-03-17T12:33:43.901Z,89.40
2023-03-17T12:36:16.266Z,88.80
2023-03-17T12:38:47.548Z,89.00
2023-03-17T12:41:29.852Z,90.00
2023-03-17T12:44:06.841Z,89.20
2023-03-17T12:46:52.274Z,88.60
2023-03-17T12:49:42.170Z,89.80
2023-03-17T12:52:35.538Z,88.60
2023-03-17T12:55:08.981Z,87.50
2023-03-17T12:57:41.898Z,87.30
2023-03-17T13:00:25.184Z,89.20
2023-03-17T13:03:13.295Z,88.60
2023-03-17T13:05:48.102Z,88.20
2023-03-17T13:08:24.902Z,89.20
2023-03-17T13:11:13.792Z,88.10
2023-03-17T13:13:59.135Z,88.40
2023-03-17T13:16:32.201Z,89.00
2023-03-17T13:19:27.282Z,88.60
2023-03-17T13:22:34.045Z,88.00
2023-03-17T13:25:17.701Z,89.60
2023-03-17T13:27:50.022Z,88.60
2023-03-17T13:30:53.447Z,88.80
2023-03-17T13:33:24.756Z,88.60
2023-03-17T13:36:22.716Z,89.10
2023-03-17T13:39:18.738Z,88.60
2023-03-17T13:42:18.092Z,88.60
2023-03-17T13:45:14.786Z,89.70
2023-03-17T13:47:45.975Z,88.60
2023-03-17T13:50:17.069Z,89.90
2023-03-17T13:52:50.731Z,90.00
2023-03-17T13:55:38.057Z,88.50
2023-03-17T13:58:27.580Z,88.50
2023-03-17T14:01:03.795Z,88.20
2023-03-17T14:03:43.268Z,88.20
2023-03-17T14:06:13.932Z,87.80
2023-03-17T14:08:47.903Z,87.20
2023-03-17T14:11:24.395Z,88.40
2023-03-17T14:14:05.119Z,87.50
2023-03-17T14:16:36.320Z,88.20
2023-03-17T14:19:17.863Z,87.70
2023-03-17T14:21:46.596Z,86.30
2023-03-17T14:24:23.945Z,86.40
2023-03-17T14:26:53.606Z,87.20
2023-03-17T14:29:26.394Z,86.70
2023-03-17T14:32:04.749Z,87.20
2023-03-17T14:34:34.950Z,87.20
2023-03-17T14:37:05.970Z,87.80
2023-03-17T14:39:35.024Z,86.80
2023-03-17T14:42:04.879Z,87.30
2023-03-17T14:44:40.860Z,87.90
2023-03-17T14:47:17.871Z,87.40
2023-03-17T14:49:47.850Z,88.10
2023-03-17T14:52:25.090Z,87.50
2023-03-17T14:54:55.196Z,87.90
2023-03-17T14:57:29.105Z,88.50
2023-03-17T15:00:00.438Z,88.80
2023-03-17T15:02:35.538Z,89.30
2023-03-17T15:05:10.847Z,88.40
2023-03-17T15:07:41.852Z,88.20
2023-03-17T15:10:16.508Z,88.00
2023-03-17T15:12:46.286Z,89.80
2023-03-17T15:15:23.857Z,89.20
2023-03-17T15:17:55.331Z,89.00
2023-03-17T15:20:25.567Z,89.00
2023-03-17T15:22:59.696Z,88.70
2023-03-17T15:25:34.337Z,88.40
2023-03-17T15:28:02.580Z,88.80
2023-03-17T15:30:44.319Z,88.80
2023-03-17T15:33:21.845Z,89.70
2023-03-17T15:35:52.403Z,90.10
2023-03-17T15:38:21.600Z,90.00
2023-03-17T15:40:50.271Z,89.80
2023-03-17T15:43:21.616Z,90.00
2023-03-17T15:45:54.673Z,90.30
2023-03-17T15:48:25.364Z,90.30
2023-03-17T15:50:56.772Z,90.30
2023-03-17T15:53:25.415Z,90.20
2023-03-17T15:55:54.513Z,90.20
2023-03-17T15:58:22.608Z,90.30
2023-03-17T16:00:54.681Z,90.00
2023-03-17T16:03:29.201Z,90.20
2023-03-17T16:05:59.515Z,90.20
2023-03-17T16:08:27.791Z,89.90
2023-03-17T16:10:56.105Z,90.20
2023-03-17T16:13:24.322Z,90.00
2023-03-17T16:15:57.251Z,90.00
2023-03-17T16:18:32.331Z,90.00
2023-03-17T16:21:02.913Z,90.00
2023-03-17T16:23:35.385Z,90.00
2023-03-17T16:26:14.753Z,89.90
2023-03-17T16:28:45.970Z,90.10
2023-03-17T16:31:23.541Z,90.00
2023-03-17T16:33:52.948Z,89.90
2023-03-17T16:36:23.753Z,90.20
2023-03-17T16:38:52.477Z,90.20
2023-03-17T16:41:23.048Z,90.30
2023-03-17T16:43:55.113Z,90.40
2023-03-17T16:46:23.783Z,90.30
2023-03-17T16:48:52.590Z,90.50
2023-03-17T16:51:22.415Z,90.40
2023-03-17T16:53:50.478Z,90.30
2023-03-17T16:56:20.522Z,91.00
2023-03-17T16:58:49.417Z,90.60
2023-03-17T17:01:20.569Z,90.50
2023-03-17T17:03:49.356Z,90.60
2023-03-17T17:06:18.162Z,90.30
2023-03-17T17:08:50.290Z,90.50
2023-03-17T17:11:20.087Z,90.50
2023-03-17T17:13:50.099Z,90.30
2023-03-17T17:16:24.428Z,90.20
2023-03-17T17:18:53.374Z,90.20
2023-03-17T17:21:22.335Z,90.30
2023-03-17T17:23:53.175Z,90.40
2023-03-17T17:26:21.555Z,90.70
2023-03-17T17:28:50.123Z,90.30
2023-03-17T17:31:18.403Z,90.40
2023-03-17T17:33:46.756Z,90.80
2023-03-17T17:36:17.318Z,90.90
2023-03-17T17:38:46.160Z,90.70
2023-03-17T17:41:16.994Z,90.70
2023-03-17T17:43:46.346Z,90.80
2023-03-17T17:46:17.321Z,91.10
2023-03-17T17:48:45.512Z,90.70
2023-03-17T17:51:14.093Z,90.80
2023-03-17T17:53:42.370Z,90.80
2023-03-17T17:56:16.024Z,91.00
2023-03-17T17:58:44.566Z,91.00
2023-03-17T18:01:14.163Z,91.10
2023-03-17T18:03:43.138Z,91.20
2023-03-17T18:06:12.852Z,91.10
2023-03-17T18:08:41.653Z,91.20
2023-03-17T18:11:10.097Z,91.30
2023-03-17T18:13:41.052Z,91.20
2023-03-17T18:16:10.796Z,91.30
2023-03-17T18:18:42.352Z,91.60
2023-03-17T18:21:11.688Z,91.50
2023-03-17T18:23:46.780Z,91.40
2023-03-17T18:26:16.141Z,91.30
2023-03-17T18:28:46.012Z,91.30
2023-03-17T18:31:18.931Z,91.50
2023-03-17T18:33:48.664Z,91.50
2023-03-17T18:36:17.096Z,91.90
2023-03-17T18:38:45.535Z,91.80
2023-03-17T18:41:13.927Z,92.40
2023-03-17T18:43:44.715Z,91.80
2023-03-17T18:46:14.444Z,91.80
2023-03-17T18:48:42.724Z,91.90
2023-03-17T18:51:11.219Z,92.10
2023-03-17T18:53:39.535Z,92.00
2023-03-17T18:56:08.447Z,92.50
2023-03-17T18:58:37.353Z,92.10
2023-03-17T19:01:06.322Z,92.40
2023-03-17T19:03:36.626Z,92.50
2023-03-17T19:06:13.262Z,92.40
2023-03-17T19:08:41.679Z,92.60
2023-03-17T19:11:12.123Z,92.40
2023-03-17T19:13:40.731Z,92.50
2023-03-17T19:16:10.492Z,92.80
2023-03-17T19:18:42.209Z,92.50
2023-03-17T19:21:11.528Z,92.40
2023-03-17T19:23:39.909Z,92.60
2023-03-17T19:26:08.169Z,92.60
2023-03-17T19:28:36.366Z,92.60
2023-03-17T19:31:04.565Z,92.60
2023-03-17T19:33:33.527Z,92.60
2023-03-17T19:36:08.022Z,92.40
2023-03-17T19:38:36.549Z,92.50
2023-03-17T19:41:05.457Z,92.60
2023-03-17T19:43:40.788Z,92.50
2023-03-17T19:46:10.993Z,92.60
2023-03-17T19:48:39.621Z,92.60
2023-03-17T19:51:09.390Z,93.20
2023-03-17T19:53:38.368Z,93.00
2023-03-17T19:56:07.090Z,92.90
2023-03-17T19:58:35.815Z,93.10
2023-03-17T20:01:04.735Z,93.10
2023-03-17T20:03:33.644Z,93.30
2023-03-17T20:06:05.980Z,93.40
2023-03-17T20:08:35.816Z,93.30
2023-03-17T20:11:05.633Z,93.40
2023-03-17T20:13:34.633Z,93.40
2023-03-17T20:16:03.601Z,93.50
2023-03-17T20:18:32.245Z,93.50
2023-03-17T20:21:01.622Z,93.80
2023-03-17T20:23:29.879Z,94.10
2023-03-17T20:25:59.434Z,93.80
2023-03-17T20:28:29.964Z,93.80
2023-03-17T20:31:00.735Z,94.00
2023-03-17T20:33:29.087Z,94.10
2023-03-17T20:35:57.737Z,94.00
2023-03-17T20:38:25.995Z,94.20
2023-03-17T20:40:54.087Z,94.30
2023-03-17T20:43:23.824Z,94.40
2023-03-17T20:45:53.232Z,94.30
2023-03-17T20:48:21.617Z,94.30
2023-03-17T20:50:50.964Z,94.60
2023-03-17T20:53:19.355Z,94.50
2023-03-17T20:55:48.298Z,94.90
2023-03-17T20:58:16.504Z,94.80
2023-03-17T21:00:46.281Z,94.60
2023-03-17T21:03:14.861Z,95.00
2023-03-17T21:05:43.586Z,95.00
2023-03-17T21:08:12.291Z,95.00
2023-03-17T21:10:40.916Z,95.20
2023-03-17T21:13:09.776Z,95.70
2023-03-17T21:15:38.645Z,95.40
2023-03-17T21:18:08.515Z,95.30
2023-03-17T21:20:37.677Z,95.50
2023-03-17T21:23:08.960Z,95.50
2023-03-17T21:25:37.333Z,95.60
2023-03-17T21:28:06.676Z,95.60
2023-03-17T21:30:37.947Z,95.70
2023-03-17T21:33:07.961Z,95.70
2023-03-17T21:35:37.095Z,95.80
2023-03-17T21:38:05.980Z,95.80
2023-03-17T21:40:34.434Z,95.80
2023-03-17T21:43:02.950Z,95.90
2023-03-17T21:45:31.629Z,96.20
2023-03-17T21:47:59.984Z,96.30
2023-03-17T21:50:30.820Z,96.40
2023-03-17T21:52:59.503Z,96.30
2023-03-17T21:55:27.795Z,96.50
2023-03-17T21:57:56.293Z,96.60
2023-03-17T22:00:27.214Z,96.50
2023-03-17T22:02:59.187Z,96.50
2023-03-17T22:05:31.262Z,96.70
2023-03-17T22:07:59.822Z,96.80
2023-03-17T22:10:28.085Z,96.70
2023-03-17T22:12:56.577Z,96.60
2023-03-17T22:15:25.708Z,96.70
2023-03-17T22:17:54.440Z,96.70
2023-03-17T22:20:22.719Z,96.90
2023-03-17T22:22:52.353Z,97.10
2023-03-17T22:25:23.186Z,97.40
2023-03-17T22:27:51.638Z,97.30
2023-03-17T22:30:20.183Z,97.20
2023-03-17T22:32:48.969Z,97.00
2023-03-17T22:35:19.501Z,97.10
2023-03-17T22:37:47.919Z,97.10
2023-03-17T22:40:18.318Z,97.10
2023-03-17T22:42:46.797Z,97.20
2023-03-17T22:45:15.509Z,97.40
2023-03-17T22:47:43.916Z,97.40
2023-03-17T22:50:12.989Z,97.30
2023-03-17T22:52:41.292Z,97.50
2023-03-17T22:55:10.587Z,97.80
2023-03-17T22:57:40.389Z,97.60
2023-03-17T23:00:14.375Z,97.80
2023-03-17T23:02:42.952Z,98.00
2023-03-17T23:05:13.653Z,98.00
2023-03-17T23:07:51.829Z,98.00
2023-03-17T23:10:24.913Z,98.10
2023-03-17T23:12:54.828Z,98.10
2023-03-17T23:15:23.627Z,98.60
2023-03-17T23:17:52.112Z,98.30
2023-03-17T23:20:20.648Z,98.30
2023-03-17T23:22:49.233Z,98.50
2023-03-17T23:25:18.467Z,98.30
2023-03-17T23:27:47.012Z,98.60
2023-03-17T23:30:18.073Z,98.50
2023-03-17T23:32:46.906Z,98.40
2023-03-17T23:35:15.497Z,98.40
2023-03-17T23:37:43.979Z,98.50
2023-03-17T23:40:15.756Z,98.30
2023-03-17T23:42:44.621Z,98.30
2023-03-17T23:45:15.689Z,98.20
2023-03-17T23:47:46.767Z,98.20
2023-03-17T23:50:16.096Z,98.30
2023-03-17T23:52:44.896Z,98.40
2023-03-17T23:55:14.581Z,98.60
2023-03-17T23:57:44.528Z,98.40
